Ocean Spirit of Moray — MVXF5 — position and weather

sailwx.info

Track history (hours):
 
Tides and Currents Weather Stations Pressure Air Temp Water Temp Dewpoint Dewpoint Depression Visibility Wind Speed Wind Dir Waves Ship Positions

Ocean Spirit of Moray (United Kingdom)

Ship's website: http://www.gordonstoun.org.uk/

Last reported at 2014-Aug-12 16:29 UTC. Time now 2014-Oct-20 21:25 UTC.
Position N 55°41' W 005°52'.
Warning: this ship's position is months out of date.

Length 24 m; draft 3 m.

Type: Sailing vessel. MMSI: 232007590.

Date/timePositionNaut miles runAvg speedWind from/ knotsBaromVisibWave heightAir tempDewpointWater temp
2014-Aug-12 16:29N 55°41' W 005°52'32 1.2
2014-Aug-11 14:31N 55°51' W 004°57'7 7.4
2014-Aug-11 13:33N 55°57' W 004°52'5 4.9
2014-Aug-11 12:33N 55°57' W 004°43'5 5.0
2014-Aug-11 11:33N 55°56' W 004°34'6 5.8
2014-Aug-11 10:32N 55°54' W 004°25'  
2014-Aug-07 10:10N 55°52' W 004°17'4 5.3
2014-Aug-07 09:25N 55°53' W 004°24'5 6.1
2014-Aug-07 08:34N 55°56' W 004°32'7 6.8
2014-Aug-07 07:34N 55°57' W 004°44'0 0.4
2014-Aug-07 06:33N 55°57' W 004°44'0 0.0
2014-Aug-07 05:33N 55°57' W 004°44'0 0.0
2014-Aug-07 04:33N 55°57' W 004°44'0 0.0
2014-Aug-07 03:33N 55°57' W 004°44'0 0.0
2014-Aug-07 02:33N 55°57' W 004°44'0 0.0
2014-Aug-07 01:33N 55°57' W 004°44'0 0.0
2014-Aug-07 00:33N 55°57' W 004°44'0 0.0
2014-Aug-06 23:32N 55°57' W 004°44'0 0.0
2014-Aug-06 22:32N 55°57' W 004°44'0 0.0
2014-Aug-06 21:32N 55°57' W 004°44'0 0.0
2014-Aug-06 20:32N 55°57' W 004°44'0 0.0
2014-Aug-06 19:32N 55°57' W 004°44'0 0.0
2014-Aug-06 18:32N 55°57' W 004°44'0 0.0
2014-Aug-06 17:32N 55°57' W 004°44'0 0.0
2014-Aug-06 16:32N 55°57' W 004°44'0 0.0
2014-Aug-06 15:32N 55°57' W 004°44'0 0.1
2014-Aug-06 14:32N 55°57' W 004°44'2 2.2
2014-Aug-06 13:33N 55°58' W 004°47'5 4.9
2014-Aug-06 12:33N 55°56' W 004°55'6 5.5
2014-Aug-06 11:33N 55°51' W 005°01'10 0.3
2014-Aug-05 06:13N 55°43' W 005°10'48 5.9
2014-Aug-04 22:08N 54°55' W 005°15'4 6.8
2014-Aug-04 21:31N 54°51' W 005°15'7 7.2
2014-Aug-04 20:32N 54°46' W 005°07'7 7.1
2014-Aug-04 19:33N 54°40' W 005°02'28 9.0
2014-Aug-04 16:29N 54°26' W 004°20'  
Track history (hours):
 
Tides and Currents Weather Stations Pressure Air Temp Water Temp Dewpoint Dewpoint Depression Visibility Wind Speed Wind Dir Waves Ship Positions

Ocean Spirit of Moray (United Kingdom)

Ship's website: http://www.gordonstoun.org.uk/

Last reported at 2014-Aug-12 16:29 UTC. Time now 2014-Oct-20 21:25 UTC.
Position N 55°41' W 005°52'.
Warning: this ship's position is months out of date.

Length 24 m; draft 3 m.

Type: Sailing vessel. MMSI: 232007590.

Date/timePositionNaut miles runAvg speedWind from/ knotsBaromVisibWave heightAir tempDewpointWater temp
2014-Aug-12 16:29N 55°41' W 005°52'32 1.2
2014-Aug-11 14:31N 55°51' W 004°57'7 7.4
2014-Aug-11 13:33N 55°57' W 004°52'5 4.9
2014-Aug-11 12:33N 55°57' W 004°43'5 5.0
2014-Aug-11 11:33N 55°56' W 004°34'6 5.8
2014-Aug-11 10:32N 55°54' W 004°25'  
2014-Aug-07 10:10N 55°52' W 004°17'4 5.3
2014-Aug-07 09:25N 55°53' W 004°24'5 6.1
2014-Aug-07 08:34N 55°56' W 004°32'7 6.8
2014-Aug-07 07:34N 55°57' W 004°44'0 0.4
2014-Aug-07 06:33N 55°57' W 004°44'0 0.0
2014-Aug-07 05:33N 55°57' W 004°44'0 0.0
2014-Aug-07 04:33N 55°57' W 004°44'0 0.0
2014-Aug-07 03:33N 55°57' W 004°44'0 0.0
2014-Aug-07 02:33N 55°57' W 004°44'0 0.0
2014-Aug-07 01:33N 55°57' W 004°44'0 0.0
2014-Aug-07 00:33N 55°57' W 004°44'0 0.0
2014-Aug-06 23:32N 55°57' W 004°44'0 0.0
2014-Aug-06 22:32N 55°57' W 004°44'0 0.0
2014-Aug-06 21:32N 55°57' W 004°44'0 0.0
2014-Aug-06 20:32N 55°57' W 004°44'0 0.0
2014-Aug-06 19:32N 55°57' W 004°44'0 0.0
2014-Aug-06 18:32N 55°57' W 004°44'0 0.0
2014-Aug-06 17:32N 55°57' W 004°44'0 0.0
2014-Aug-06 16:32N 55°57' W 004°44'0 0.0
2014-Aug-06 15:32N 55°57' W 004°44'0 0.1
2014-Aug-06 14:32N 55°57' W 004°44'2 2.2
2014-Aug-06 13:33N 55°58' W 004°47'5 4.9
2014-Aug-06 12:33N 55°56' W 004°55'6 5.5
2014-Aug-06 11:33N 55°51' W 005°01'10 0.3
2014-Aug-05 06:13N 55°43' W 005°10'48 5.9
2014-Aug-04 22:08N 54°55' W 005°15'4 6.8
2014-Aug-04 21:31N 54°51' W 005°15'7 7.2
2014-Aug-04 20:32N 54°46' W 005°07'7 7.1
2014-Aug-04 19:33N 54°40' W 005°02'28 9.0
2014-Aug-04 16:29N 54°26' W 004°20'  

Dump ship's entire track history